Time;durP1;ratioP1;P1;durP2;ratioP2;P2;SDS_P1;SDS_P2;PMS_P1;PMS_P2;Temp;Humidity;BMP_temperature;BMP_pressure;BME280_temperature;BME280_humidity;BME280_pressure;Samples;Min_cycle;Max_cycle;Signal;HPM_P1;HPM_P2
2021/07/10 00:03:08;;;;;;;10.27;9.27;;;17.90;99.90;;;;;;10501990;28;20220;-82
2021/07/10 00:08:10;;;;;;;11.30;10.30;;;17.80;99.90;;;;;;10486077;28;20670;-82
2021/07/10 00:13:14;;;;;;;10.73;9.70;;;17.80;99.90;;;;;;10521222;28;20705;-82
2021/07/10 00:18:16;;;;;;;10.33;9.50;;;17.70;99.90;;;;;;10534808;28;20224;-82
2021/07/10 00:23:18;;;;;;;11.27;10.27;;;17.70;99.90;;;;;;10504901;28;20731;-81
2021/07/10 00:28:22;;;;;;;12.00;10.90;;;17.60;99.90;;;;;;10523180;28;20180;-82
2021/07/10 00:33:24;;;;;;;11.17;10.17;;;17.60;99.90;;;;;;10521415;28;20251;-81
2021/07/10 00:38:26;;;;;;;11.67;10.47;;;17.50;99.90;;;;;;10520659;28;20223;-84
2021/07/10 00:43:30;;;;;;;10.70;9.80;;;17.40;99.90;;;;;;10525810;28;20250;-82
2021/07/10 00:48:32;;;;;;;10.07;9.20;;;17.50;99.90;;;;;;10520447;28;20575;-84
2021/07/10 00:53:34;;;;;;;10.23;9.33;;;17.40;99.90;;;;;;10505244;28;20227;-82
2021/07/10 00:58:37;;;;;;;10.70;9.80;;;17.30;99.90;;;;;;10504009;28;20258;-84
2021/07/10 01:03:44;;;;;;;10.30;9.40;;;17.30;99.90;;;;;;10529236;28;20247;-83
2021/07/10 01:08:48;;;;;;;10.60;9.60;;;17.20;99.90;;;;;;10539994;28;20636;-82
2021/07/10 01:13:51;;;;;;;10.30;9.23;;;17.20;99.90;;;;;;10499984;28;20315;-83
2021/07/10 01:18:53;;;;;;;9.73;8.93;;;17.20;99.90;;;;;;10482364;28;20289;-82
2021/07/10 01:23:57;;;;;;;9.70;8.67;;;17.20;99.90;;;;;;10499529;28;20528;-83
2021/07/10 01:28:59;;;;;;;8.03;7.33;;;17.10;99.90;;;;;;10501530;28;20631;-83
2021/07/10 01:34:02;;;;;;;9.73;9.03;;;17.00;99.90;;;;;;10482658;28;20242;-82
2021/07/10 01:39:07;;;;;;;9.33;8.63;;;17.00;99.90;;;;;;10499996;28;20320;-84
2021/07/10 01:44:09;;;;;;;9.07;8.37;;;17.00;99.90;;;;;;10501527;28;20215;-82
2021/07/10 01:49:11;;;;;;;9.47;8.77;;;17.00;99.90;;;;;;10500918;28;20695;-83
2021/07/10 01:54:15;;;;;;;8.43;7.83;;;16.90;99.90;;;;;;10499158;28;20291;-82
2021/07/10 01:59:17;;;;;;;9.10;8.47;;;16.90;99.90;;;;;;10498116;28;20263;-84
2021/07/10 02:04:21;;;;;;;9.23;8.30;;;16.90;99.90;;;;;;10483206;28;20274;-82
2021/07/10 02:09:24;;;;;;;8.43;7.63;;;16.90;99.90;;;;;;10482011;28;20204;-82
2021/07/10 02:14:26;;;;;;;7.30;6.80;;;16.90;99.90;;;;;;10483341;28;20200;-83
2021/07/10 02:19:29;;;;;;;7.97;7.37;;;16.90;99.90;;;;;;10482590;28;20283;-83
2021/07/10 02:24:32;;;;;;;8.90;8.00;;;16.80;99.90;;;;;;10499201;28;20231;-82
2021/07/10 02:29:34;;;;;;;9.33;8.63;;;16.80;99.90;;;;;;10483101;28;20212;-84
2021/07/10 02:34:37;;;;;;;8.20;7.40;;;16.70;99.90;;;;;;10484027;28;20208;-84
2021/07/10 02:39:40;;;;;;;8.33;7.53;;;16.70;99.90;;;;;;10501536;28;20238;-84
2021/07/10 02:44:42;;;;;;;8.07;7.40;;;16.60;99.90;;;;;;10504874;28;20644;-80
2021/07/10 02:49:44;;;;;;;7.97;7.17;;;16.60;99.90;;;;;;10485959;28;20656;-83
2021/07/10 02:54:48;;;;;;;8.33;7.50;;;16.60;99.90;;;;;;10500364;28;20219;-82
2021/07/10 02:59:50;;;;;;;8.00;7.20;;;16.50;99.90;;;;;;10500014;28;20224;-83
2021/07/10 03:04:52;;;;;;;7.70;7.03;;;16.50;99.90;;;;;;10502092;28;20227;-82
2021/07/10 03:09:55;;;;;;;7.47;6.80;;;16.50;99.90;;;;;;10477368;28;20228;-83
2021/07/10 03:14:57;;;;;;;7.17;6.67;;;16.40;99.90;;;;;;10459436;28;20228;-84
2021/07/10 03:19:59;;;;;;;7.17;6.67;;;16.40;99.90;;;;;;10475370;28;20260;-84
2021/07/10 03:25:05;;;;;;;8.20;7.57;;;16.40;99.90;;;;;;10473787;28;20205;-84
2021/07/10 03:30:09;;;;;;;7.07;6.57;;;16.40;99.90;;;;;;10476485;28;20213;-83
2021/07/10 03:35:13;;;;;;;7.40;6.90;;;16.40;99.90;;;;;;10468266;28;20295;-84
2021/07/10 03:40:19;;;;;;;7.87;7.20;;;16.30;99.90;;;;;;10480962;28;20250;-84
2021/07/10 03:45:21;;;;;;;7.83;7.33;;;16.30;99.90;;;;;;10509048;28;20200;-81
2021/07/10 03:50:23;;;;;;;7.30;6.67;;;16.30;99.90;;;;;;10491856;28;20680;-83
2021/07/10 03:55:28;;;;;;;7.80;7.30;;;16.30;99.90;;;;;;10508043;28;20208;-82
2021/07/10 04:00:30;;;;;;;7.70;7.20;;;16.30;99.90;;;;;;10508869;28;20228;-83
2021/07/10 04:05:32;;;;;;;7.37;6.83;;;16.40;99.90;;;;;;10508397;28;20254;-82
2021/07/10 04:10:36;;;;;;;8.47;7.77;;;16.40;99.90;;;;;;10491649;28;20304;-82
2021/07/10 04:15:38;;;;;;;7.47;6.97;;;16.40;99.90;;;;;;10465536;28;20219;-81
2021/07/10 04:20:40;;;;;;;8.10;7.50;;;16.30;99.90;;;;;;10447956;28;20329;-84
2021/07/10 04:25:44;;;;;;;8.97;8.27;;;16.30;99.90;;;;;;10459058;28;20197;-84
2021/07/10 04:30:46;;;;;;;8.20;7.40;;;16.30;99.90;;;;;;10443271;28;20249;-84
2021/07/10 04:35:48;;;;;;;7.67;7.07;;;16.40;99.90;;;;;;10443138;28;20229;-82
2021/07/10 04:40:51;;;;;;;8.63;7.83;;;16.40;99.90;;;;;;10460973;28;20627;-83
2021/07/10 04:45:54;;;;;;;7.77;7.17;;;16.50;99.90;;;;;;10499331;28;20664;-82
2021/07/10 04:50:56;;;;;;;7.43;6.83;;;16.50;99.90;;;;;;10501850;28;20209;-83
2021/07/10 04:55:59;;;;;;;8.77;7.97;;;16.50;99.90;;;;;;10500113;28;20193;-82
2021/07/10 05:01:01;;;;;;;10.57;9.60;;;16.60;99.90;;;;;;10498345;28;20209;-82
2021/07/10 05:06:03;;;;;;;9.60;8.80;;;16.60;99.90;;;;;;10499495;28;20227;-83
2021/07/10 05:11:07;;;;;;;10.90;9.80;;;16.70;99.90;;;;;;10497842;28;20225;-82
2021/07/10 05:16:09;;;;;;;9.87;9.17;;;16.80;99.90;;;;;;10497010;28;20207;-82
2021/07/10 05:21:11;;;;;;;9.53;8.83;;;16.90;99.90;;;;;;10497025;28;20408;-83
2021/07/10 05:26:14;;;;;;;9.47;8.57;;;16.90;99.90;;;;;;10497566;28;20244;-83
2021/07/10 05:31:17;;;;;;;9.97;9.27;;;17.00;99.90;;;;;;10481022;28;20212;-82
2021/07/10 05:36:19;;;;;;;9.47;8.77;;;17.00;99.90;;;;;;10479422;28;20587;-82
2021/07/10 05:41:22;;;;;;;11.07;10.00;;;17.10;99.90;;;;;;10529250;22;20259;-81
2021/07/10 05:46:24;;;;;;;9.90;9.20;;;17.10;99.90;;;;;;10505008;28;20203;-81
2021/07/10 05:51:26;;;;;;;10.67;9.77;;;17.20;99.90;;;;;;10526177;28;20299;-81
2021/07/10 05:56:30;;;;;;;10.40;9.60;;;17.20;99.90;;;;;;10502509;28;20197;-81
2021/07/10 06:01:32;;;;;;;10.00;9.30;;;17.30;99.90;;;;;;10503409;28;20220;-81
2021/07/10 06:06:34;;;;;;;11.07;10.13;;;17.40;99.90;;;;;;10502511;28;20189;-81
2021/07/10 06:11:38;;;;;;;10.50;9.80;;;17.50;99.90;;;;;;10505645;28;20303;-81
2021/07/10 06:16:40;;;;;;;10.47;9.33;;;17.60;99.90;;;;;;10505875;28;20208;-81
2021/07/10 06:21:42;;;;;;;13.73;12.63;;;17.70;99.90;;;;;;10502977;28;21083;-81
2021/07/10 06:26:45;;;;;;;13.27;11.97;;;17.80;99.90;;;;;;10518337;28;20259;-81
2021/07/10 06:31:47;;;;;;;9.60;8.90;;;17.80;99.90;;;;;;10506929;28;20216;-81
2021/07/10 06:36:49;;;;;;;12.30;11.30;;;17.90;99.90;;;;;;10498643;28;20303;-81
2021/07/10 06:41:53;;;;;;;9.70;8.87;;;18.10;99.90;;;;;;10483274;28;20764;-81
2021/07/10 06:46:55;;;;;;;9.33;8.63;;;18.30;99.90;;;;;;10497416;28;20190;-81
2021/07/10 06:51:57;;;;;;;8.63;8.03;;;18.60;99.90;;;;;;10502137;28;20217;-81
2021/07/10 06:57:01;;;;;;;8.63;7.83;;;19.00;99.90;;;;;;10483891;28;20684;-81
2021/07/10 07:02:03;;;;;;;8.80;8.00;;;19.30;99.90;;;;;;10499851;28;20279;-81
2021/07/10 07:07:05;;;;;;;8.30;7.70;;;19.70;99.90;;;;;;10500342;28;20189;-81
2021/07/10 07:12:09;;;;;;;7.90;7.07;;;20.00;99.90;;;;;;10502153;28;20228;-81
2021/07/10 07:17:11;;;;;;;7.17;6.67;;;20.30;99.90;;;;;;10499502;28;20220;-81
2021/07/10 07:22:13;;;;;;;7.50;6.90;;;20.60;99.90;;;;;;10500996;28;20209;-81
2021/07/10 07:27:17;;;;;;;7.00;6.50;;;20.90;99.90;;;;;;10501583;28;20220;-82
2021/07/10 07:32:19;;;;;;;7.00;6.50;;;21.30;99.90;;;;;;10501648;28;20696;-81
2021/07/10 07:37:21;;;;;;;6.23;5.63;;;21.80;99.90;;;;;;10501568;28;20209;-81
2021/07/10 07:42:24;;;;;;;7.03;6.33;;;22.30;99.90;;;;;;10500590;28;20305;-81
2021/07/10 07:47:27;;;;;;;6.10;5.60;;;22.80;99.90;;;;;;10504121;28;20284;-82
2021/07/10 07:52:29;;;;;;;5.90;5.50;;;23.40;99.90;;;;;;10492738;28;20224;-81
2021/07/10 07:57:32;;;;;;;5.40;4.90;;;23.90;99.90;;;;;;10499206;28;20208;-82
2021/07/10 08:02:34;;;;;;;5.57;5.17;;;24.40;99.90;;;;;;10506158;28;20213;-82
2021/07/10 08:07:37;;;;;;;5.60;5.20;;;24.90;99.90;;;;;;10487652;28;20203;-82
2021/07/10 08:12:41;;;;;;;4.97;4.43;;;25.40;99.90;;;;;;10507641;28;20224;-82
2021/07/10 08:17:43;;;;;;;5.73;5.33;;;25.80;99.90;;;;;;10506169;28;20205;-80
2021/07/10 08:22:50;;;;;;;5.83;5.33;;;26.30;99.90;;;;;;10504810;28;20299;-80
2021/07/10 08:27:57;;;;;;;4.57;4.17;;;26.90;98.60;;;;;;10505425;28;20189;-80
2021/07/10 08:32:59;;;;;;;4.50;4.20;;;27.20;96.00;;;;;;10506562;28;20281;-80
2021/07/10 08:38:02;;;;;;;5.77;4.23;;;27.30;95.80;;;;;;10505825;28;20212;-80
2021/07/10 08:43:05;;;;;;;5.23;4.73;;;27.60;95.50;;;;;;10505308;28;20258;-80
2021/07/10 08:48:08;;;;;;;4.87;4.47;;;27.80;94.80;;;;;;10507092;28;20227;-80
2021/07/10 08:53:10;;;;;;;4.47;4.17;;;28.00;93.70;;;;;;10506879;28;20239;-80
2021/07/10 08:58:17;;;;;;;5.00;4.70;;;28.10;91.80;;;;;;10503754;28;20213;-80
2021/07/10 09:03:22;;;;;;;4.73;4.43;;;28.00;91.70;;;;;;10504064;28;20282;-80
2021/07/10 09:08:27;;;;;;;4.37;4.03;;;28.10;92.30;;;;;;10503388;28;20288;-79
2021/07/10 09:13:42;;;;;;;5.20;4.50;;;28.40;91.50;;;;;;10504117;28;20255;-80
2021/07/10 09:18:47;;;;;;;5.90;4.03;;;28.60;89.90;;;;;;10501554;28;20210;-80
2021/07/10 09:23:53;;;;;;;3.47;3.23;;;28.90;85.70;;;;;;10502445;28;20232;-80
2021/07/10 09:29:11;;;;;;;3.90;3.50;;;29.00;84.70;;;;;;10504713;28;20197;-80
2021/07/10 09:34:16;;;;;;;4.83;4.40;;;29.30;81.40;;;;;;10485653;28;20250;-80
2021/07/10 09:39:19;;;;;;;4.03;3.73;;;29.60;81.40;;;;;;10504885;28;20550;-80
2021/07/10 09:44:22;;;;;;;3.43;3.23;;;30.10;75.80;;;;;;10518042;28;20686;-81
2021/07/10 09:49:30;;;;;;;4.87;4.37;;;30.50;73.90;;;;;;10496756;28;20231;-80
2021/07/10 09:54:37;;;;;;;3.73;3.53;;;30.90;73.90;;;;;;10497425;28;20214;-80
2021/07/10 09:59:43;;;;;;;3.87;3.57;;;31.50;71.30;;;;;;10499032;28;20619;-81
2021/07/10 10:04:46;;;;;;;3.50;3.23;;;32.70;68.60;;;;;;10503257;28;20268;-81
2021/07/10 10:09:55;;;;;;;2.93;2.83;;;34.30;65.10;;;;;;10501692;28;20224;-80
2021/07/10 10:14:59;;;;;;;3.30;3.10;;;35.30;58.00;;;;;;10497839;28;20206;-81
2021/07/10 10:20:01;;;;;;;2.83;2.63;;;36.30;55.10;;;;;;10500079;28;20306;-81
2021/07/10 10:25:04;;;;;;;3.00;2.80;;;37.00;52.20;;;;;;10506131;28;20662;-81
2021/07/10 10:30:08;;;;;;;2.43;2.33;;;36.80;52.10;;;;;;10501961;28;20238;-80
2021/07/10 10:35:11;;;;;;;3.50;3.30;;;34.80;51.80;;;;;;10501477;28;20200;-80
2021/07/10 10:40:16;;;;;;;3.60;3.40;;;32.80;52.50;;;;;;10501274;28;20726;-80
2021/07/10 10:45:26;;;;;;;3.40;3.20;;;31.00;56.40;;;;;;10503078;28;20197;-81
2021/07/10 10:50:30;;;;;;;3.40;3.20;;;29.50;58.40;;;;;;10501773;28;20677;-80
2021/07/10 10:55:37;;;;;;;3.13;2.93;;;28.50;63.20;;;;;;10501072;28;20197;-80
2021/07/10 11:00:43;;;;;;;3.70;3.30;;;27.70;63.60;;;;;;10499250;28;20676;-80
2021/07/10 11:05:54;;;;;;;3.37;3.13;;;27.20;63.50;;;;;;10500629;28;20199;-80
2021/07/10 11:11:19;;;;;;;4.20;3.80;;;26.60;64.40;;;;;;10501307;28;20227;-80
2021/07/10 11:16:22;;;;;;;3.50;3.20;;;26.10;64.20;;;;;;10503413;28;20303;-80
2021/07/10 11:21:42;;;;;;;3.50;3.30;;;25.70;66.90;;;;;;10506524;28;20232;-80
2021/07/10 11:26:46;;;;;;;3.77;3.47;;;25.50;67.40;;;;;;10503220;28;20325;-80
2021/07/10 11:31:51;;;;;;;3.40;3.20;;;25.30;68.00;;;;;;10505002;28;20295;-80
2021/07/10 11:36:58;;;;;;;3.50;3.30;;;25.20;67.80;;;;;;10494160;28;20202;-80
2021/07/10 11:42:17;;;;;;;3.97;3.67;;;25.00;68.80;;;;;;10540799;22;20620;-84
2021/07/10 11:47:31;;;;;;;3.63;3.43;;;24.90;74.60;;;;;;10525142;28;20196;-83
2021/07/10 11:52:33;;;;;;;4.10;3.80;;;24.80;72.80;;;;;;10494892;28;20582;-81
2021/07/10 11:57:37;;;;;;;6.10;4.30;;;24.70;73.30;;;;;;10480336;28;20204;-83
2021/07/10 12:02:41;;;;;;;4.37;4.00;;;24.70;74.70;;;;;;10479235;28;20739;-82
2021/07/10 12:07:45;;;;;;;4.07;3.80;;;24.80;78.00;;;;;;10479373;28;20201;-83
2021/07/10 12:12:48;;;;;;;4.40;4.10;;;24.90;74.30;;;;;;10480958;28;20266;-84
2021/07/10 12:17:54;;;;;;;3.83;3.53;;;25.00;79.00;;;;;;10481297;28;20542;-82
2021/07/10 12:22:58;;;;;;;3.67;3.47;;;25.10;78.20;;;;;;10484447;28;20697;-82
2021/07/10 12:28:03;;;;;;;3.60;3.40;;;25.20;74.30;;;;;;10476801;28;20304;-80
2021/07/10 12:33:36;;;;;;;4.03;3.83;;;25.00;75.10;;;;;;10462780;28;20637;-82
2021/07/10 12:38:57;;;;;;;4.23;3.93;;;25.00;74.60;;;;;;10479430;28;20280;-84
2021/07/10 12:44:17;;;;;;;3.77;3.57;;;25.10;75.80;;;;;;10455506;28;20224;-83
2021/07/10 12:49:22;;;;;;;3.60;3.40;;;25.10;72.40;;;;;;10470557;28;20246;-84
2021/07/10 12:54:42;;;;;;;3.80;3.60;;;25.10;72.30;;;;;;10480260;28;20227;-82
2021/07/10 12:59:49;;;;;;;3.80;3.53;;;25.00;74.30;;;;;;10484218;28;20188;-80
2021/07/10 13:04:53;;;;;;;6.60;3.83;;;24.90;76.80;;;;;;10498214;28;20208;-81
2021/07/10 13:09:55;;;;;;;3.70;3.50;;;25.00;74.20;;;;;;10509565;28;20209;-81
2021/07/10 13:15:02;;;;;;;3.63;3.43;;;25.10;76.30;;;;;;10500343;28;20258;-82
2021/07/10 13:20:28;;;;;;;3.70;3.50;;;25.20;75.20;;;;;;10482362;28;20700;-82
2021/07/10 13:25:40;;;;;;;3.90;3.60;;;25.10;76.60;;;;;;10483077;28;20200;-80
2021/07/10 13:30:42;;;;;;;3.53;3.33;;;25.20;76.80;;;;;;10498894;28;20262;-81
2021/07/10 13:35:46;;;;;;;4.00;3.30;;;25.30;75.90;;;;;;10498706;28;20189;-83
2021/07/10 13:40:48;;;;;;;3.80;3.50;;;25.40;76.10;;;;;;10478063;28;20228;-83
2021/07/10 13:46:08;;;;;;;3.40;3.20;;;25.40;75.70;;;;;;10459071;28;20215;-81
2021/07/10 13:51:12;;;;;;;3.23;3.03;;;25.40;77.30;;;;;;10458844;28;20370;-82
2021/07/10 13:56:17;;;;;;;3.53;3.23;;;25.50;77.50;;;;;;10458581;28;20272;-82
2021/07/10 14:01:19;;;;;;;3.57;3.37;;;25.50;76.00;;;;;;10459046;28;20252;-81
2021/07/10 14:06:23;;;;;;;4.17;3.17;;;25.50;73.80;;;;;;10457208;28;20208;-83
2021/07/10 14:11:25;;;;;;;3.63;3.30;;;25.50;73.00;;;;;;10467232;28;20282;-85
2021/07/10 14:16:27;;;;;;;2.77;2.67;;;25.50;75.80;;;;;;10503105;28;20264;-82
2021/07/10 14:21:31;;;;;;;4.00;3.70;;;25.60;76.90;;;;;;10499891;28;20282;-81
2021/07/10 14:26:33;;;;;;;3.40;3.20;;;25.60;75.70;;;;;;10480161;28;20200;-82
2021/07/10 14:31:35;;;;;;;3.53;3.23;;;25.60;74.40;;;;;;10496655;28;20242;-82
2021/07/10 14:36:39;;;;;;;3.77;3.47;;;25.70;77.20;;;;;;10496753;28;20718;-82
2021/07/10 14:41:41;;;;;;;3.77;3.47;;;25.70;73.40;;;;;;10499910;28;20240;-82
2021/07/10 14:46:43;;;;;;;3.37;3.17;;;25.60;72.00;;;;;;10497527;28;20227;-81
2021/07/10 14:51:46;;;;;;;2.90;2.70;;;25.50;72.60;;;;;;10497269;28;20212;-82
2021/07/10 14:56:48;;;;;;;4.10;3.70;;;25.50;74.80;;;;;;10498472;28;20200;-82
2021/07/10 15:01:50;;;;;;;2.90;2.80;;;25.50;75.60;;;;;;10505292;28;20228;-82
2021/07/10 15:06:54;;;;;;;3.53;3.33;;;25.40;72.00;;;;;;10503314;28;20193;-82
2021/07/10 15:11:57;;;;;;;3.83;3.50;;;25.30;74.50;;;;;;10505912;28;20570;-81
2021/07/10 15:16:59;;;;;;;3.40;3.20;;;25.10;75.30;;;;;;10506985;28;20201;-83
2021/07/10 15:22:03;;;;;;;3.37;3.07;;;25.00;75.90;;;;;;10504508;28;20228;-81
2021/07/10 15:27:05;;;;;;;2.67;2.47;;;24.90;74.80;;;;;;10498929;28;20208;-82
2021/07/10 15:32:09;;;;;;;3.20;3.00;;;24.80;77.80;;;;;;10502201;28;20236;-81
2021/07/10 15:37:13;;;;;;;2.90;2.80;;;24.80;74.40;;;;;;10499507;28;20625;-83
2021/07/10 15:42:15;;;;;;;3.20;3.00;;;24.80;76.20;;;;;;10500593;28;20260;-82
2021/07/10 15:47:20;;;;;;;2.83;2.70;;;24.80;79.30;;;;;;10484173;28;20251;-81
2021/07/10 15:52:25;;;;;;;3.20;3.00;;;24.80;77.00;;;;;;10497095;28;20236;-82
2021/07/10 15:57:27;;;;;;;2.53;2.43;;;24.80;75.60;;;;;;10479494;28;20291;-83
2021/07/10 16:02:29;;;;;;;3.00;2.80;;;24.80;75.60;;;;;;10498812;28;20711;-85
2021/07/10 16:07:33;;;;;;;3.60;2.70;;;24.80;72.90;;;;;;10484188;28;20655;-81
2021/07/10 16:12:38;;;;;;;3.37;3.17;;;24.80;72.70;;;;;;10464845;28;20244;-83
2021/07/10 16:17:43;;;;;;;3.23;2.93;;;24.80;76.50;;;;;;10448305;28;20292;-82
2021/07/10 16:22:47;;;;;;;3.43;3.23;;;24.70;76.70;;;;;;10481588;28;20309;-82
2021/07/10 16:27:50;;;;;;;2.80;2.60;;;24.70;75.70;;;;;;10482078;28;20229;-83
2021/07/10 16:32:56;;;;;;;4.00;3.80;;;24.60;76.20;;;;;;10488603;28;20221;-82
2021/07/10 16:37:59;;;;;;;2.97;2.77;;;24.60;77.30;;;;;;10492364;28;20192;-83
2021/07/10 16:43:05;;;;;;;2.93;2.83;;;24.60;74.00;;;;;;10484924;28;20225;-82
2021/07/10 16:48:07;;;;;;;3.20;2.70;;;24.60;77.20;;;;;;10494253;28;20646;-81
2021/07/10 16:53:12;;;;;;;3.13;2.93;;;24.60;79.50;;;;;;10504451;28;20470;-80
2021/07/10 16:58:14;;;;;;;2.97;2.70;;;24.50;74.40;;;;;;10504536;28;20192;-81
2021/07/10 17:03:16;;;;;;;2.93;2.77;;;24.60;74.30;;;;;;10502885;28;20224;-81
2021/07/10 17:08:20;;;;;;;2.93;2.73;;;24.50;73.80;;;;;;10475967;28;20203;-82
2021/07/10 17:13:22;;;;;;;2.80;2.70;;;24.60;75.80;;;;;;10477083;28;20720;-85
2021/07/10 17:18:24;;;;;;;2.97;2.73;;;24.50;77.00;;;;;;10456862;28;20201;-83
2021/07/10 17:23:28;;;;;;;3.70;3.50;;;24.50;74.30;;;;;;10421550;28;20258;-80
2021/07/10 17:28:32;;;;;;;3.03;2.93;;;24.40;75.70;;;;;;10459713;28;20209;-81
2021/07/10 17:33:34;;;;;;;3.63;2.90;;;24.40;75.10;;;;;;10443247;28;20296;-81
2021/07/10 17:38:38;;;;;;;3.00;2.80;;;24.40;74.80;;;;;;10469428;28;20628;-81
2021/07/10 17:43:40;;;;;;;3.10;2.90;;;24.40;78.50;;;;;;10553569;22;20261;-82
2021/07/10 17:48:42;;;;;;;3.17;2.97;;;24.40;78.30;;;;;;10558060;28;20259;-82
2021/07/10 17:53:46;;;;;;;4.00;3.63;;;24.30;81.80;;;;;;10550694;28;20241;-82
2021/07/10 17:58:48;;;;;;;6.00;3.90;;;24.20;82.40;;;;;;10508511;28;20204;-82
2021/07/10 18:03:51;;;;;;;4.20;3.70;;;24.10;84.20;;;;;;10522193;28;20246;-84
2021/07/10 18:08:54;;;;;;;3.97;3.77;;;24.00;86.50;;;;;;10524970;28;20189;-81
2021/07/10 18:13:57;;;;;;;3.47;3.27;;;23.90;87.50;;;;;;10509422;28;20224;-82
2021/07/10 18:18:59;;;;;;;4.07;3.67;;;23.80;88.60;;;;;;10500993;28;20687;-82
2021/07/10 18:24:03;;;;;;;3.40;3.20;;;23.70;89.60;;;;;;10521297;28;20291;-82
2021/07/10 18:29:06;;;;;;;3.93;3.43;;;23.60;90.70;;;;;;10519197;28;20192;-82
2021/07/10 20:28:54;;;;;;;7.63;6.90;;;22.50;99.90;;;;;;10474206;23;20233;-84
2021/07/10 23:45:31;;;;;;;2.60;2.40;;;19.90;99.90;;;;;;10390736;23;20248;-82
2021/07/10 23:50:35;;;;;;;2.77;2.57;;;19.70;99.90;;;;;;10297007;28;20243;-80
2021/07/10 23:55:37;;;;;;;2.67;2.57;;;19.60;99.90;;;;;;10300792;28;20629;-81
